Etusivu
METAR-TAF:

METAR-TAF

Lentoasemat :

Millington, Tennessee, Yhdysvallat

Leveyspiiri: 35-21-24N, Pituuspiiri: 089-52-13W, korkeus merenpinnasta: 98 m

Tämänhetkinen sää

Tämä raportti tehtiin 20 minuuttia sitten, kello 02.35 UTC
Tuuli 4 kn kaakosta
Lämpötila 26°C
Kosteus 70%
Ilmanpaine 1018 hPa
Näkyvyys: 16.1 km
selkeää

METAR: KNQA 260235Z AUTO 13004KT 10SM CLR 26/20 A3005 RMK A01

Aika: 21:55 (02:55 UTC)


TAF: puuttuu

Säähavainnot ja -ennusteet yli 4000 lentoasemalta (METAR- ja TAF-raportit).

Käytössä olevat sääasemat on merkitty karttaan keltaisilla ja punaisilla pisteillä.

Aseta hiiri pisteen päälle nähdäksesi sääaseman nimen.

Klikkaa sitten nähdäksesi säähavainnot ja -ennusteet.

Kartan vaihtaminen: klikkaa mustalla rastilla varustettuja vihreitä pisteitä, niin voit zoomata sisään; viivalla varustettua vihreää pistettä, niin voit zoomata ulos tai vihreitä nuolia, niin pääset viereisille kartoille.


METAR-TAF: